Time,TemperatureF,DewpointF,PressureIn,WindDirection,WindDirectionDegrees,WindSpeedMPH,WindSpeedGustMPH,Humidity,HourlyPrecipIn,Conditions,Clouds,dailyrainin,SoftwareType,DateUTC
2018-02-25 00:02:00,73.9,72.7,-100.00,ESE,106,4.0,-999.0,96,-99.99,,,0.00,meteohub,2018-02-25 06:02:00,
2018-02-25 00:07:00,73.9,72.7,-100.00,East,83,3.0,-999.0,96,-99.99,,,0.00,meteohub,2018-02-25 06:07:00,
2018-02-25 00:12:00,73.9,72.7,-100.00,East,84,5.0,-999.0,96,-99.99,,,0.00,meteohub,2018-02-25 06:12:00,
2018-02-25 00:17:00,73.9,72.7,-100.00,East,92,5.0,-999.0,96,-99.99,,,0.00,meteohub,2018-02-25 06:17:00,
2018-02-25 00:22:00,73.9,72.7,-100.00,East,91,5.0,-999.0,96,-99.99,,,0.00,meteohub,2018-02-25 06:22:00,
2018-02-25 00:27:00,73.8,72.5,-100.00,East,98,7.0,-999.0,96,-99.99,,,0.00,meteohub,2018-02-25 06:27:00,
2018-02-25 00:32:00,73.8,72.9,-100.00,East,90,5.0,-999.0,97,-99.99,,,0.00,meteohub,2018-02-25 06:32:00,
2018-02-25 00:37:00,73.8,72.9,-100.00,ENE,73,7.0,-999.0,97,-99.99,,,0.00,meteohub,2018-02-25 06:37:00,
2018-02-25 00:42:00,73.6,72.7,-100.00,East,80,2.0,-999.0,97,-99.99,,,0.00,meteohub,2018-02-25 06:42:00,
2018-02-25 00:47:00,73.6,72.7,-100.00,East,96,6.0,-999.0,97,-99.99,,,0.00,meteohub,2018-02-25 06:47:00,
2018-02-25 00:52:00,73.6,72.7,-100.00,ESE,102,4.0,-999.0,97,-99.99,,,0.00,meteohub,2018-02-25 06:52:00,
2018-02-25 00:57:00,73.4,72.5,-100.00,NE,51,4.0,-999.0,97,-99.99,,,0.00,meteohub,2018-02-25 06:57:00,
2018-02-25 01:02:00,73.2,72.3,-100.00,East,79,6.0,-999.0,97,-99.99,,,0.00,meteohub,2018-02-25 07:02:00,
2018-02-25 01:07:00,73.2,72.7,-100.00,ESE,111,3.0,-999.0,98,-99.99,,,0.00,meteohub,2018-02-25 07:07:00,
2018-02-25 01:12:00,73.2,72.7,-100.00,North,1,1.0,-999.0,98,-99.99,,,0.00,meteohub,2018-02-25 07:12:00,
2018-02-25 01:17:00,73.2,72.7,-100.00,East,101,1.0,-999.0,98,-99.99,,,0.00,meteohub,2018-02-25 07:17:00,
2018-02-25 01:22:00,73.2,72.7,-100.00,East,88,2.0,-999.0,98,-99.99,,,0.00,meteohub,2018-02-25 07:22:00,
2018-02-25 01:27:00,73.0,72.5,-100.00,SE,135,2.0,-999.0,98,-99.99,,,0.00,meteohub,2018-02-25 07:27:00,
2018-02-25 01:32:00,73.0,72.5,-100.00,East,86,3.0,-999.0,98,-99.99,,,0.00,meteohub,2018-02-25 07:32:00,
2018-02-25 01:37:00,73.0,72.5,-100.00,ENE,75,2.0,-999.0,98,-99.99,,,0.00,meteohub,2018-02-25 07:37:00,
2018-02-25 01:42:00,73.0,72.5,-100.00,ENE,70,2.0,-999.0,98,-99.99,,,0.00,meteohub,2018-02-25 07:42:00,
2018-02-25 01:47:00,73.0,72.5,-100.00,ENE,69,4.0,-999.0,98,-99.99,,,0.00,meteohub,2018-02-25 07:47:00,
2018-02-25 01:52:00,73.0,72.5,-100.00,East,92,1.0,-999.0,98,-99.99,,,0.00,meteohub,2018-02-25 07:52:00,
2018-02-25 01:57:00,73.0,72.5,-100.00,East,93,2.0,-999.0,98,-99.99,,,0.00,meteohub,2018-02-25 07:57:00,
2018-02-25 02:02:00,73.0,72.5,-100.00,SSE,155,2.0,-999.0,98,-99.99,,,0.00,meteohub,2018-02-25 08:02:00,
2018-02-25 02:07:00,73.0,72.5,-100.00,ESE,117,4.0,-999.0,98,-99.99,,,0.00,meteohub,2018-02-25 08:07:00,
2018-02-25 02:12:00,73.0,72.5,-100.00,ESE,108,4.0,-999.0,98,-99.99,,,0.00,meteohub,2018-02-25 08:12:00,
2018-02-25 02:17:00,73.0,72.5,-100.00,ESE,114,6.0,-999.0,98,-99.99,,,0.00,meteohub,2018-02-25 08:17:00,
2018-02-25 02:24:00,73.0,72.5,-100.00,East,89,4.0,-999.0,98,-99.99,,,0.00,meteohub,2018-02-25 08:24:00,
2018-02-25 02:30:00,73.0,72.5,-100.00,ENE,74,5.0,-999.0,98,-99.99,,,0.00,meteohub,2018-02-25 08:30:00,
2018-02-25 02:36:00,73.0,72.7,-100.00,NW,314,2.0,-999.0,99,-99.99,,,0.00,meteohub,2018-02-25 08:36:00,
2018-02-25 02:42:00,73.0,72.7,-100.00,SSE,153,2.0,-999.0,99,-99.99,,,0.00,meteohub,2018-02-25 08:42:00,
2018-02-25 02:47:00,73.0,72.7,-100.00,ESE,114,2.0,-999.0,99,-99.99,,,0.00,meteohub,2018-02-25 08:47:00,
2018-02-25 02:52:00,73.0,72.7,-100.00,East,96,0.0,-999.0,99,-99.99,,,0.00,meteohub,2018-02-25 08:52:00,
2018-02-25 02:57:00,72.1,69.1,-100.00,ENE,75,2.0,-999.0,90,-99.99,,,0.00,meteohub,2018-02-25 08:57:00,
2018-02-25 03:04:00,70.0,66.9,-100.00,ENE,75,0.0,-999.0,90,-99.99,,,0.00,meteohub,2018-02-25 09:04:00,
2018-02-25 03:10:00,69.1,66.7,-100.00,SSW,212,0.0,-999.0,92,-99.99,,,0.00,meteohub,2018-02-25 09:10:00,
2018-02-25 03:16:00,68.0,66.2,-100.00,ENE,74,2.0,-999.0,94,-99.99,,,0.00,meteohub,2018-02-25 09:16:00,
2018-02-25 03:22:00,67.3,66.0,-100.00,NE,36,0.0,-999.0,96,-99.99,,,0.00,meteohub,2018-02-25 09:22:00,
2018-02-25 03:27:00,66.9,66.6,-100.00,WSW,238,2.0,-999.0,99,-99.99,,,0.00,meteohub,2018-02-25 09:27:00,
2018-02-25 03:32:00,66.4,66.4,-100.00,SW,229,2.0,-999.0,100,-99.99,,,0.00,meteohub,2018-02-25 09:32:00,
2018-02-25 03:37:00,66.4,66.4,-100.00,WSW,239,1.0,-999.0,100,-99.99,,,0.00,meteohub,2018-02-25 09:37:00,
2018-02-25 03:42:00,66.4,66.4,-100.00,SE,139,0.0,-999.0,100,-99.99,,,0.00,meteohub,2018-02-25 09:42:00,
2018-02-25 03:47:00,65.8,65.8,-100.00,WSW,255,3.0,-999.0,100,-99.99,,,0.00,meteohub,2018-02-25 09:47:00,
2018-02-25 03:52:00,65.7,65.7,-100.00,West,260,5.0,-999.0,100,-99.99,,,0.00,meteohub,2018-02-25 09:52:00,
2018-02-25 03:57:00,65.5,65.5,-100.00,West,274,3.0,-999.0,100,-99.99,,,0.00,meteohub,2018-02-25 09:57:00,
2018-02-25 04:02:00,64.9,64.9,-100.00,WSW,253,2.0,-999.0,100,-99.99,,,0.00,meteohub,2018-02-25 10:02:00,
2018-02-25 04:07:00,65.1,65.1,-100.00,NE,47,0.0,-999.0,100,-99.99,,,0.00,meteohub,2018-02-25 10:07:00,
2018-02-25 04:12:00,64.9,64.9,-100.00,WSW,255,4.0,-999.0,100,-99.99,,,0.00,meteohub,2018-02-25 10:12:00,
2018-02-25 04:17:00,64.8,64.8,-100.00,WSW,248,3.0,-999.0,100,-99.99,,,0.00,meteohub,2018-02-25 10:17:00,
2018-02-25 04:22:00,64.6,64.6,-100.00,WSW,240,4.0,-999.0,100,-99.99,,,0.00,meteohub,2018-02-25 10:22:00,
2018-02-25 04:27:00,64.2,64.2,-100.00,WSW,251,5.0,-999.0,100,-99.99,,,0.00,meteohub,2018-02-25 10:27:00,
2018-02-25 04:32:00,63.0,63.0,-100.00,WSW,253,8.0,-999.0,100,-99.99,,,0.00,meteohub,2018-02-25 10:32:00,
2018-02-25 04:37:00,61.9,61.9,-100.00,WSW,251,3.0,-999.0,100,-99.99,,,0.00,meteohub,2018-02-25 10:37:00,
2018-02-25 04:42:00,60.3,59.9,-100.00,West,259,7.0,-999.0,99,-99.99,,,0.00,meteohub,2018-02-25 10:42:00,
2018-02-25 04:47:00,59.0,59.0,-100.00,West,259,8.0,-999.0,100,-99.99,,,0.00,meteohub,2018-02-25 10:47:00,
2018-02-25 04:52:00,58.3,58.3,-100.00,West,270,4.0,-999.0,100,-99.99,,,0.00,meteohub,2018-02-25 10:52:00,
2018-02-25 04:57:00,57.2,57.2,-100.00,WSW,240,5.0,-999.0,100,-99.99,,,0.00,meteohub,2018-02-25 10:57:00,
2018-02-25 05:02:00,56.8,56.8,-100.00,WSW,256,7.0,-999.0,100,-99.99,,,0.00,meteohub,2018-02-25 11:02:00,
2018-02-25 05:07:00,56.7,56.7,-100.00,WSW,243,4.0,-999.0,100,-99.99,,,0.00,meteohub,2018-02-25 11:07:00,
2018-02-25 05:12:00,56.7,56.7,-100.00,WSW,251,3.0,-999.0,100,-99.99,,,0.00,meteohub,2018-02-25 11:12:00,
2018-02-25 05:17:00,56.7,56.7,-100.00,WSW,248,6.0,-999.0,100,-99.99,,,0.00,meteohub,2018-02-25 11:17:00,
2018-02-25 05:22:00,56.3,56.3,-100.00,SSW,209,6.0,-999.0,100,-99.99,,,0.00,meteohub,2018-02-25 11:22:00,
2018-02-25 05:27:00,56.1,56.1,-100.00,WSW,257,2.0,-999.0,100,-99.99,,,0.00,meteohub,2018-02-25 11:27:00,
2018-02-25 05:32:00,56.1,56.1,-100.00,WSW,239,5.0,-999.0,100,-99.99,,,0.00,meteohub,2018-02-25 11:32:00,
2018-02-25 05:37:00,56.1,56.1,-100.00,SW,235,2.0,-999.0,100,-99.99,,,0.00,meteohub,2018-02-25 11:37:00,
2018-02-25 05:42:00,56.5,56.5,-100.00,SW,224,3.0,-999.0,100,-99.99,,,0.00,meteohub,2018-02-25 11:42:00,
2018-02-25 05:47:00,56.8,56.8,-100.00,West,260,6.0,-999.0,100,-99.99,,,0.00,meteohub,2018-02-25 11:47:00,
2018-02-25 05:52:00,56.5,56.5,-100.00,South,179,1.0,-999.0,100,-99.99,,,0.00,meteohub,2018-02-25 11:52:00,
2018-02-25 05:57:00,56.5,56.5,-100.00,WSW,245,5.0,-999.0,100,-99.99,,,0.00,meteohub,2018-02-25 11:57:00,
2018-02-25 06:02:00,56.5,56.5,-100.00,WSW,239,5.0,-999.0,100,-99.99,,,0.00,meteohub,2018-02-25 12:02:00,
2018-02-25 06:07:00,56.1,56.1,-100.00,SW,232,4.0,-999.0,100,-99.99,,,0.00,meteohub,2018-02-25 12:07:00,
2018-02-25 06:12:00,56.5,56.5,-100.00,SW,228,4.0,-999.0,100,-99.99,,,0.00,meteohub,2018-02-25 12:12:00,
2018-02-25 06:17:00,56.7,56.7,-100.00,WSW,240,4.0,-999.0,100,-99.99,,,0.00,meteohub,2018-02-25 12:17:00,
2018-02-25 06:22:00,56.7,56.7,-100.00,WSW,255,6.0,-999.0,100,-99.99,,,0.00,meteohub,2018-02-25 12:22:00,